createdAt,value
2023-02-15T00:00:18.927Z,14.47
2023-02-15T00:02:47.300Z,14.90
2023-02-15T00:05:15.659Z,13.20
2023-02-15T00:07:45.350Z,16.23
2023-02-15T00:10:13.676Z,13.17
2023-02-15T00:12:41.998Z,11.63
2023-02-15T00:15:12.384Z,12.03
2023-02-15T00:17:40.732Z,13.17
2023-02-15T00:20:10.440Z,12.30
2023-02-15T00:22:39.511Z,13.53
2023-02-15T00:25:09.474Z,16.93
2023-02-15T00:27:37.810Z,14.93
2023-02-15T00:30:07.828Z,22.37
2023-02-15T00:32:36.269Z,14.60
2023-02-15T00:35:04.756Z,13.07
2023-02-15T00:37:33.084Z,14.10
2023-02-15T00:40:01.545Z,10.30
2023-02-15T00:42:33.271Z,12.60
2023-02-15T00:45:01.589Z,12.90
2023-02-15T00:47:30.654Z,13.67
2023-02-15T00:49:59.028Z,19.77
2023-02-15T00:52:27.371Z,17.33
2023-02-15T00:54:55.674Z,14.50
2023-02-15T00:57:23.988Z,13.27
2023-02-15T00:59:53.640Z,13.50
2023-02-15T01:02:21.997Z,15.50
2023-02-15T01:04:50.322Z,13.10
2023-02-15T01:07:18.824Z,14.77
2023-02-15T01:09:47.125Z,14.17
2023-02-15T01:12:15.604Z,12.57
2023-02-15T01:14:44.134Z,13.73
2023-02-15T01:17:13.762Z,13.67
2023-02-15T01:19:42.161Z,15.63
2023-02-15T01:22:10.523Z,13.73
2023-02-15T01:24:38.885Z,12.47
2023-02-15T01:27:07.203Z,18.70
2023-02-15T01:29:35.524Z,12.20
2023-02-15T01:32:04.436Z,15.00
2023-02-15T01:34:34.346Z,15.47
2023-02-15T01:37:02.750Z,12.83
2023-02-15T01:39:31.096Z,13.57
2023-02-15T01:41:59.375Z,16.23
2023-02-15T01:44:51.842Z,14.80
2023-02-15T01:47:30.210Z,16.23
2023-02-15T01:50:09.028Z,14.23
2023-02-15T01:52:43.997Z,12.50
2023-02-15T01:55:14.009Z,14.13
2023-02-15T01:57:43.131Z,13.50
2023-02-15T02:00:12.935Z,16.27
2023-02-15T02:02:41.891Z,13.03
2023-02-15T02:05:11.682Z,13.30
2023-02-15T02:07:43.784Z,14.40
2023-02-15T02:10:15.612Z,11.00
2023-02-15T02:12:46.262Z,11.93
2023-02-15T02:15:15.829Z,10.13
2023-02-15T02:18:00.774Z,13.47
2023-02-15T02:20:55.885Z,12.03
2023-02-15T02:23:40.742Z,10.47
2023-02-15T02:27:03.404Z,15.63
2023-02-15T02:30:27.673Z,12.63
2023-02-15T02:33:30.398Z,11.33
2023-02-15T02:36:09.087Z,14.87
2023-02-15T02:38:54.767Z,21.83
2023-02-15T02:41:33.115Z,16.30
2023-02-15T02:44:15.000Z,14.97
2023-02-15T02:46:52.794Z,13.80
2023-02-15T02:49:33.356Z,13.83
2023-02-15T02:52:03.178Z,15.80
2023-02-15T02:54:33.201Z,14.30
2023-02-15T02:57:06.482Z,15.17
2023-02-15T02:59:38.905Z,13.50
2023-02-15T03:02:14.055Z,15.47
2023-02-15T03:04:48.565Z,13.60
2023-02-15T03:07:23.009Z,13.57
2023-02-15T03:09:54.389Z,11.63
2023-02-15T03:12:26.446Z,15.63
2023-02-15T03:15:04.409Z,13.43
2023-02-15T03:17:36.542Z,14.30
2023-02-15T03:20:12.182Z,16.17
2023-02-15T03:22:48.074Z,15.27
2023-02-15T03:25:22.216Z,15.07
2023-02-15T03:27:55.523Z,13.50
2023-02-15T03:30:26.295Z,14.00
2023-02-15T03:33:01.209Z,15.33
2023-02-15T03:35:41.346Z,15.80
2023-02-15T03:38:11.336Z,14.93
2023-02-15T03:41:00.529Z,16.63
2023-02-15T03:43:45.370Z,15.10
2023-02-15T03:46:20.281Z,14.70
2023-02-15T03:48:54.433Z,11.03
2023-02-15T03:51:37.444Z,10.40
2023-02-15T03:54:10.201Z,12.20
2023-02-15T03:56:40.639Z,12.23
2023-02-15T03:59:26.545Z,13.40
2023-02-15T04:02:09.598Z,13.80
2023-02-15T04:04:40.216Z,11.70
2023-02-15T04:07:11.091Z,11.20
2023-02-15T04:09:57.107Z,12.43
2023-02-15T04:12:25.964Z,11.27
2023-02-15T04:15:11.897Z,11.03
2023-02-15T04:17:40.575Z,12.20
2023-02-15T04:20:27.925Z,12.90
2023-02-15T04:23:15.276Z,13.57
2023-02-15T04:25:43.581Z,11.57
2023-02-15T04:28:11.925Z,12.07
2023-02-15T04:30:40.259Z,13.40
2023-02-15T04:33:08.547Z,12.30
2023-02-15T04:35:36.827Z,12.03
2023-02-15T04:38:06.506Z,11.73
2023-02-15T04:40:34.773Z,10.50
2023-02-15T04:43:03.084Z,11.30
2023-02-15T04:45:31.381Z,10.60
2023-02-15T04:47:59.783Z,11.20
2023-02-15T04:50:28.130Z,9.83
2023-02-15T04:52:57.042Z,11.90
2023-02-15T04:55:27.931Z,12.57
2023-02-15T04:57:56.230Z,11.30
2023-02-15T05:00:24.742Z,11.17
2023-02-15T05:02:53.048Z,10.57
2023-02-15T05:05:21.415Z,10.53
2023-02-15T05:07:49.733Z,9.63
2023-02-15T05:10:18.314Z,10.77
2023-02-15T05:12:48.079Z,10.33
2023-02-15T05:15:16.556Z,10.47
2023-02-15T05:17:44.896Z,9.07
2023-02-15T05:20:13.700Z,10.50
2023-02-15T05:22:42.385Z,8.80
2023-02-15T05:25:29.149Z,10.63
2023-02-15T05:28:16.396Z,10.07
2023-02-15T05:30:44.977Z,11.87
2023-02-15T05:33:13.393Z,12.13
2023-02-15T05:35:41.757Z,15.07
2023-02-15T05:38:10.128Z,12.30
2023-02-15T05:40:38.432Z,11.33
2023-02-15T05:43:08.164Z,11.70
2023-02-15T05:45:36.530Z,11.03
2023-02-15T05:48:05.106Z,10.40
2023-02-15T05:50:33.438Z,12.17
2023-02-15T05:53:01.774Z,12.60
2023-02-15T05:55:30.124Z,12.20
2023-02-15T05:57:58.447Z,13.10
2023-02-15T06:00:28.135Z,12.07
2023-02-15T06:02:56.478Z,12.67
2023-02-15T06:05:24.858Z,12.17
2023-02-15T06:07:53.232Z,11.83
2023-02-15T06:10:21.927Z,11.47
2023-02-15T06:12:50.398Z,9.57
2023-02-15T06:15:18.930Z,12.47
2023-02-15T06:17:48.585Z,12.10
2023-02-15T06:20:17.083Z,12.47
2023-02-15T06:22:45.425Z,13.03
2023-02-15T06:25:13.718Z,13.60
2023-02-15T06:27:44.538Z,13.67
2023-02-15T06:30:14.952Z,15.60
2023-02-15T06:32:43.324Z,12.57
2023-02-15T06:35:13.058Z,10.10
2023-02-15T06:37:41.814Z,11.53
2023-02-15T06:40:11.424Z,10.83
2023-02-15T06:42:39.741Z,12.33
2023-02-15T06:45:09.072Z,14.90
2023-02-15T06:47:37.379Z,11.93
2023-02-15T06:50:07.138Z,15.40
2023-02-15T06:52:36.815Z,11.77
2023-02-15T06:55:05.699Z,14.20
2023-02-15T06:57:34.252Z,14.10
2023-02-15T07:00:02.699Z,13.53
2023-02-15T07:02:31.059Z,12.90
2023-02-15T07:04:59.608Z,14.00
2023-02-15T07:07:27.979Z,14.20
2023-02-15T07:09:57.657Z,13.80
2023-02-15T07:12:43.536Z,14.03
2023-02-15T07:15:14.149Z,16.37
2023-02-15T07:17:42.764Z,13.80
2023-02-15T07:20:14.506Z,15.13
2023-02-15T07:22:43.174Z,14.90
2023-02-15T07:25:14.239Z,13.93
2023-02-15T07:27:44.229Z,17.50
2023-02-15T07:30:15.444Z,14.53
2023-02-15T07:32:58.916Z,17.87
2023-02-15T07:35:27.577Z,15.93
2023-02-15T07:37:56.599Z,14.67
2023-02-15T07:40:26.454Z,15.40
2023-02-15T07:42:55.916Z,18.60
2023-02-15T07:45:24.707Z,15.13
2023-02-15T07:47:53.015Z,12.80
2023-02-15T07:50:21.318Z,13.77
2023-02-15T07:52:49.686Z,14.73
2023-02-15T07:55:19.573Z,15.43
2023-02-15T07:57:51.422Z,14.03
2023-02-15T08:00:24.510Z,14.43
2023-02-15T08:03:09.240Z,15.73
2023-02-15T08:05:37.984Z,13.50
2023-02-15T08:08:06.806Z,11.97
2023-02-15T08:10:53.285Z,14.50
2023-02-15T08:13:22.984Z,14.60
2023-02-15T08:15:51.801Z,16.10
2023-02-15T08:18:20.273Z,13.40
2023-02-15T08:20:51.980Z,15.23
2023-02-15T08:23:20.414Z,12.73
2023-02-15T08:25:48.773Z,14.03
2023-02-15T08:28:17.080Z,14.03
2023-02-15T08:30:46.818Z,17.27
2023-02-15T08:33:15.165Z,15.57
2023-02-15T08:35:43.504Z,17.37
2023-02-15T08:38:11.816Z,14.83
2023-02-15T08:40:40.169Z,18.17
2023-02-15T08:43:08.473Z,16.97
2023-02-15T08:45:36.921Z,14.70
2023-02-15T08:48:07.156Z,21.43
2023-02-15T08:50:35.466Z,18.00
2023-02-15T08:53:04.766Z,14.07
2023-02-15T08:55:33.122Z,17.43
2023-02-15T08:58:01.455Z,14.83
2023-02-15T09:00:30.072Z,15.37
2023-02-15T09:02:58.408Z,15.50
2023-02-15T09:05:28.172Z,14.17
2023-02-15T09:07:56.517Z,17.37
2023-02-15T09:10:24.855Z,14.90
2023-02-15T09:12:54.020Z,15.80
2023-02-15T09:15:22.393Z,17.53
2023-02-15T09:17:50.735Z,15.30
2023-02-15T09:20:19.362Z,13.97
2023-02-15T09:22:49.120Z,17.00
2023-02-15T09:25:17.729Z,15.97
2023-02-15T09:27:46.118Z,17.93
2023-02-15T09:30:15.882Z,16.47
2023-02-15T09:32:44.270Z,15.60
2023-02-15T09:35:12.625Z,16.37
2023-02-15T09:37:40.982Z,16.67
2023-02-15T09:40:13.945Z,18.70
2023-02-15T09:43:03.565Z,15.97
2023-02-15T09:45:47.916Z,15.37
2023-02-15T09:48:40.738Z,18.20
2023-02-15T09:51:37.937Z,15.57
2023-02-15T09:54:28.718Z,19.20
2023-02-15T09:57:05.502Z,18.13
2023-02-15T09:59:45.222Z,14.43
2023-02-15T10:02:36.907Z,15.80
2023-02-15T10:05:25.769Z,17.40
2023-02-15T10:08:34.397Z,15.47
2023-02-15T10:11:30.513Z,17.57
2023-02-15T10:14:18.336Z,15.07
2023-02-15T10:16:58.929Z,17.70
2023-02-15T10:19:41.376Z,14.30
2023-02-15T10:22:27.213Z,15.80
2023-02-15T10:25:18.211Z,15.77
2023-02-15T10:27:49.115Z,15.70
2023-02-15T10:30:27.849Z,17.10
2023-02-15T10:33:03.455Z,15.27
2023-02-15T10:35:42.550Z,16.97
2023-02-15T10:38:30.414Z,18.50
2023-02-15T10:41:11.767Z,17.27
2023-02-15T10:44:05.219Z,18.40
2023-02-15T10:46:53.740Z,25.70
2023-02-15T10:50:07.527Z,21.40
2023-02-15T10:52:50.161Z,21.30
2023-02-15T10:55:26.888Z,24.47
2023-02-15T10:58:06.220Z,26.07
2023-02-15T11:00:43.369Z,27.00
2023-02-15T11:03:35.701Z,25.30
2023-02-15T11:06:08.190Z,27.47
2023-02-15T11:08:42.947Z,26.27
2023-02-15T11:11:16.427Z,25.83
2023-02-15T11:13:50.225Z,29.47
2023-02-15T11:16:23.488Z,30.10
2023-02-15T11:18:58.497Z,28.67
2023-02-15T11:21:31.575Z,26.97
2023-02-15T11:24:01.673Z,23.80
2023-02-15T11:26:36.575Z,24.43
2023-02-15T11:29:14.576Z,24.93
2023-02-15T11:31:47.391Z,25.53
2023-02-15T11:34:25.414Z,24.10
2023-02-15T11:36:56.759Z,26.03
2023-02-15T11:39:29.576Z,24.77
2023-02-15T11:42:02.346Z,25.57
2023-02-15T11:44:35.196Z,23.30
2023-02-15T11:47:03.707Z,26.93
2023-02-15T11:49:36.020Z,26.27
2023-02-15T11:52:09.410Z,22.83
2023-02-15T11:54:42.614Z,25.50
2023-02-15T11:57:21.303Z,28.87
2023-02-15T11:59:58.369Z,26.87
2023-02-15T12:02:28.582Z,23.43
2023-02-15T12:05:02.643Z,26.83
2023-02-15T12:07:37.445Z,24.17
2023-02-15T12:10:17.460Z,25.37
2023-02-15T12:12:45.892Z,24.00
2023-02-15T12:15:15.739Z,23.87
2023-02-15T12:17:53.177Z,21.57
2023-02-15T12:20:31.797Z,23.97
2023-02-15T12:23:04.339Z,23.93
2023-02-15T12:25:39.408Z,29.67
2023-02-15T12:28:26.073Z,22.57
2023-02-15T12:30:55.827Z,20.77
2023-02-15T12:33:32.289Z,27.47
2023-02-15T12:36:08.396Z,28.63
2023-02-15T12:38:36.794Z,25.77
2023-02-15T12:41:11.219Z,24.17
2023-02-15T12:43:40.546Z,29.73
2023-02-15T12:46:26.435Z,27.37
2023-02-15T12:49:20.772Z,25.63
2023-02-15T12:51:53.119Z,24.13
2023-02-15T12:54:42.445Z,27.63
2023-02-15T12:57:32.826Z,22.47
2023-02-15T13:00:04.024Z,28.10
2023-02-15T13:02:41.155Z,28.00
2023-02-15T13:05:21.593Z,24.90
2023-02-15T13:07:56.256Z,25.90
2023-02-15T13:10:28.563Z,27.47
2023-02-15T13:12:58.889Z,29.17
2023-02-15T13:15:33.691Z,27.93
2023-02-15T13:18:04.045Z,26.67
2023-02-15T13:20:33.938Z,28.20
2023-02-15T13:23:08.911Z,34.80
2023-02-15T13:25:51.138Z,33.93
2023-02-15T13:28:25.184Z,27.87
2023-02-15T13:30:54.230Z,30.33
2023-02-15T13:33:30.252Z,29.33
2023-02-15T13:36:08.978Z,29.87
2023-02-15T13:38:57.741Z,28.43
2023-02-15T13:41:36.436Z,28.47
2023-02-15T13:44:17.298Z,31.23
2023-02-15T13:47:04.636Z,31.70
2023-02-15T13:49:50.020Z,31.07
2023-02-15T13:52:24.076Z,30.83
2023-02-15T13:55:22.547Z,33.33
2023-02-15T13:58:20.425Z,31.00
2023-02-15T14:00:58.926Z,30.57
2023-02-15T14:03:57.158Z,32.63
2023-02-15T14:06:49.617Z,29.10
2023-02-15T14:09:33.295Z,30.77
2023-02-15T14:12:29.910Z,32.63
2023-02-15T14:15:16.990Z,32.30
2023-02-15T14:17:58.688Z,28.27
2023-02-15T14:20:43.649Z,29.63
2023-02-15T14:23:31.152Z,33.90
2023-02-15T14:26:04.807Z,29.63
2023-02-15T14:28:45.462Z,32.63
2023-02-15T14:31:17.407Z,30.07
2023-02-15T14:34:10.493Z,36.70
2023-02-15T14:36:38.952Z,34.40
2023-02-15T14:39:48.806Z,37.20
2023-02-15T14:42:26.227Z,32.07
2023-02-15T14:45:04.281Z,35.47
2023-02-15T14:47:39.432Z,34.97
2023-02-15T14:50:45.009Z,35.50
2023-02-15T14:53:39.973Z,35.13
2023-02-15T14:56:25.563Z,36.93
2023-02-15T14:59:18.324Z,33.03
2023-02-15T15:01:59.465Z,36.23
2023-02-15T15:04:33.062Z,35.97
2023-02-15T15:07:11.220Z,33.10
2023-02-15T15:09:41.646Z,30.90
2023-02-15T15:12:40.706Z,30.50
2023-02-15T15:15:16.486Z,32.53
2023-02-15T15:18:01.869Z,34.67
2023-02-15T15:20:46.793Z,35.40
2023-02-15T15:23:46.508Z,35.90
2023-02-15T15:26:31.695Z,35.47
2023-02-15T15:29:02.854Z,34.77
2023-02-15T15:31:46.303Z,35.33
2023-02-15T15:35:01.964Z,34.93
2023-02-15T15:38:16.238Z,33.03
2023-02-15T15:41:05.670Z,34.60
2023-02-15T15:44:01.035Z,34.10
2023-02-15T15:47:10.414Z,36.13
2023-02-15T15:49:41.151Z,36.27
2023-02-15T15:52:17.235Z,34.53
2023-02-15T15:54:49.320Z,36.47
2023-02-15T15:57:23.063Z,31.50
2023-02-15T15:59:52.024Z,36.97
2023-02-15T16:02:20.475Z,36.47
2023-02-15T16:04:50.316Z,34.67
2023-02-15T16:07:27.773Z,33.57
2023-02-15T16:09:58.771Z,35.33
2023-02-15T16:12:29.433Z,32.37
2023-02-15T16:14:59.354Z,34.83
2023-02-15T16:17:32.652Z,36.20
2023-02-15T16:20:09.910Z,31.50
2023-02-15T16:22:40.710Z,35.80
2023-02-15T16:25:33.938Z,33.40
2023-02-15T16:28:09.827Z,35.27
2023-02-15T16:30:40.756Z,33.47
2023-02-15T16:33:11.194Z,31.97
2023-02-15T16:35:43.502Z,32.63
2023-02-15T16:38:12.862Z,32.33
2023-02-15T16:40:53.169Z,33.27
2023-02-15T16:43:27.225Z,33.73
2023-02-15T16:46:06.404Z,34.80
2023-02-15T16:48:41.174Z,37.20
2023-02-15T16:51:11.776Z,34.80
2023-02-15T16:53:40.194Z,36.37
2023-02-15T16:56:08.699Z,32.67
2023-02-15T16:58:41.967Z,38.53
2023-02-15T17:01:13.128Z,37.00
2023-02-15T17:03:43.980Z,32.63
2023-02-15T17:06:24.485Z,33.53
2023-02-15T17:08:52.825Z,40.53
2023-02-15T17:11:22.807Z,36.03
2023-02-15T17:14:16.353Z,36.57
2023-02-15T17:16:50.336Z,39.73
2023-02-15T17:19:24.202Z,36.17
2023-02-15T17:21:57.198Z,34.27
2023-02-15T17:24:37.382Z,37.37
2023-02-15T17:27:14.214Z,35.97
2023-02-15T17:29:46.527Z,35.03
2023-02-15T17:32:21.731Z,35.17
2023-02-15T17:35:04.002Z,36.60
2023-02-15T17:37:46.892Z,41.37
2023-02-15T17:40:24.575Z,41.97
2023-02-15T17:42:53.368Z,41.27
2023-02-15T17:45:27.675Z,42.23
2023-02-15T17:47:58.168Z,37.43
2023-02-15T17:50:29.807Z,39.87
2023-02-15T17:53:03.173Z,40.70
2023-02-15T17:55:36.585Z,39.13
2023-02-15T17:58:08.642Z,38.60
2023-02-15T18:00:58.497Z,37.57
2023-02-15T18:03:58.578Z,38.97
2023-02-15T18:06:44.652Z,35.43
2023-02-15T18:09:34.844Z,35.60
2023-02-15T18:12:19.865Z,33.87
2023-02-15T18:14:48.427Z,33.90
2023-02-15T18:17:18.226Z,31.80
2023-02-15T18:19:48.346Z,31.23
2023-02-15T18:22:19.786Z,38.50
2023-02-15T18:24:51.199Z,35.13
2023-02-15T18:27:21.261Z,34.47
2023-02-15T18:29:49.705Z,37.43
2023-02-15T18:32:23.196Z,35.90
2023-02-15T18:34:52.371Z,35.87
2023-02-15T18:37:23.653Z,40.33
2023-02-15T18:39:55.054Z,38.53
2023-02-15T18:42:27.124Z,39.00
2023-02-15T18:44:58.392Z,30.50
2023-02-15T18:47:27.767Z,36.40
2023-02-15T18:49:56.520Z,38.50
2023-02-15T18:52:28.605Z,41.53
2023-02-15T18:55:02.434Z,40.63
2023-02-15T18:57:31.317Z,44.37
2023-02-15T18:59:59.884Z,40.83
2023-02-15T19:02:29.144Z,40.50
2023-02-15T19:04:57.505Z,41.60
2023-02-15T19:07:29.851Z,49.90
2023-02-15T19:10:02.648Z,47.87
2023-02-15T19:12:31.379Z,47.77
2023-02-15T19:14:59.865Z,45.33
2023-02-15T19:17:28.198Z,43.10
2023-02-15T19:19:56.819Z,42.23
2023-02-15T19:22:30.756Z,41.97
2023-02-15T19:25:04.497Z,42.80
2023-02-15T19:27:36.003Z,39.97
2023-02-15T19:30:12.805Z,50.77
2023-02-15T19:32:41.153Z,56.97
2023-02-15T19:35:15.776Z,47.53
2023-02-15T19:37:47.919Z,45.17
2023-02-15T19:40:25.287Z,46.63
2023-02-15T19:42:54.405Z,40.13
2023-02-15T19:45:25.341Z,39.70
2023-02-15T19:47:56.871Z,38.03
2023-02-15T19:50:27.677Z,30.93
2023-02-15T19:52:56.055Z,38.03
2023-02-15T19:55:29.249Z,38.57
2023-02-15T19:57:59.610Z,36.53
2023-02-15T20:00:30.423Z,35.50
2023-02-15T20:02:59.852Z,34.43
2023-02-15T20:05:30.012Z,37.63
2023-02-15T20:07:59.295Z,29.03
2023-02-15T20:10:33.288Z,37.67
2023-02-15T20:13:02.532Z,33.87
2023-02-15T20:15:33.465Z,35.67
2023-02-15T20:18:04.275Z,35.67
2023-02-15T20:20:41.100Z,31.83
2023-02-15T20:23:20.446Z,34.37
2023-02-15T20:25:50.832Z,30.60
2023-02-15T20:28:21.266Z,29.53
2023-02-15T20:30:50.555Z,35.00
2023-02-15T20:33:20.306Z,32.53
2023-02-15T20:35:49.551Z,29.63
2023-02-15T20:38:21.870Z,35.03
2023-02-15T20:41:09.517Z,49.17
2023-02-15T20:43:38.071Z,37.07
2023-02-15T20:46:07.726Z,34.43
2023-02-15T20:48:36.741Z,31.43
2023-02-15T20:51:13.362Z,30.53
2023-02-15T20:53:41.821Z,31.87
2023-02-15T20:56:19.910Z,31.40
2023-02-15T20:58:48.801Z,29.37
2023-02-15T21:01:19.888Z,26.03
2023-02-15T21:03:49.098Z,28.43
2023-02-15T21:06:18.498Z,24.53
2023-02-15T21:08:46.941Z,28.70
2023-02-15T21:11:21.523Z,27.07
2023-02-15T21:13:51.713Z,28.87
2023-02-15T21:16:20.292Z,27.87
2023-02-15T21:18:48.901Z,29.93
2023-02-15T21:21:24.010Z,29.90
2023-02-15T21:23:53.989Z,29.60
2023-02-15T21:26:24.927Z,33.47
2023-02-15T21:28:53.496Z,28.87
2023-02-15T21:31:24.734Z,27.43
2023-02-15T21:33:53.434Z,28.60
2023-02-15T21:36:25.247Z,25.50
2023-02-15T21:38:54.337Z,27.00
2023-02-15T21:41:43.093Z,24.47
2023-02-15T21:44:36.606Z,23.10
2023-02-15T21:47:22.592Z,23.63
2023-02-15T21:49:50.958Z,25.10
2023-02-15T21:52:23.787Z,23.27
2023-02-15T21:54:52.125Z,19.03
2023-02-15T21:57:22.438Z,29.90
2023-02-15T21:59:50.984Z,22.70
2023-02-15T22:02:29.365Z,25.07
2023-02-15T22:04:59.448Z,25.37
2023-02-15T22:07:27.837Z,25.23
2023-02-15T22:09:56.172Z,20.57
2023-02-15T22:12:25.910Z,32.47
2023-02-15T22:14:55.502Z,22.17
2023-02-15T22:17:28.996Z,28.87
2023-02-15T22:19:57.916Z,19.03
2023-02-15T22:22:26.240Z,18.17
2023-02-15T22:24:54.540Z,18.37
2023-02-15T22:27:27.597Z,25.97
2023-02-15T22:29:56.814Z,19.40
2023-02-15T22:32:27.486Z,29.90
2023-02-15T22:34:56.260Z,18.67
2023-02-15T22:37:24.546Z,18.47
2023-02-15T22:39:52.896Z,15.57
2023-02-15T22:42:28.011Z,14.53
2023-02-15T22:44:58.433Z,14.00
2023-02-15T22:47:29.369Z,14.17
2023-02-15T22:49:57.659Z,23.37
2023-02-15T22:52:26.182Z,17.33
2023-02-15T22:54:54.454Z,17.33
2023-02-15T22:57:30.526Z,13.87
2023-02-15T23:00:00.644Z,14.87
2023-02-15T23:02:29.093Z,13.70
2023-02-15T23:04:57.409Z,16.40
2023-02-15T23:07:25.774Z,14.20
2023-02-15T23:09:54.095Z,20.97
2023-02-15T23:12:28.115Z,13.37
2023-02-15T23:14:58.421Z,26.67
2023-02-15T23:17:26.754Z,13.00
2023-02-15T23:19:55.016Z,17.83
2023-02-15T23:22:23.321Z,14.63
2023-02-15T23:24:53.971Z,14.53
2023-02-15T23:27:39.899Z,15.37
2023-02-15T23:30:15.406Z,14.23
2023-02-15T23:32:43.769Z,15.33
2023-02-15T23:35:16.232Z,15.23
2023-02-15T23:37:44.779Z,15.73
2023-02-15T23:40:33.752Z,15.47
2023-02-15T23:43:02.152Z,14.13
2023-02-15T23:45:37.208Z,20.10
2023-02-15T23:48:33.538Z,15.47
2023-02-15T23:51:02.261Z,14.10
2023-02-15T23:53:31.544Z,12.77
2023-02-15T23:56:05.004Z,24.50
2023-02-15T23:58:38.212Z,13.80
